createdAt,value
2018-08-17T00:01:36.034Z,31.27
2018-08-17T00:04:09.474Z,30.57
2018-08-17T00:06:42.898Z,30.95
2018-08-17T00:09:16.346Z,31.23
2018-08-17T00:11:49.783Z,30.97
2018-08-17T00:14:23.224Z,31.68
2018-08-17T00:16:56.637Z,30.82
2018-08-17T00:19:30.093Z,31.42
2018-08-17T00:22:03.607Z,31.02
2018-08-17T00:24:37.030Z,30.92
2018-08-17T00:27:10.470Z,31.05
2018-08-17T00:29:43.910Z,31.15
2018-08-17T00:32:17.543Z,31.00
2018-08-17T00:34:51.002Z,31.45
2018-08-17T00:37:24.440Z,31.42
2018-08-17T00:39:57.874Z,31.07
2018-08-17T00:42:31.316Z,31.05
2018-08-17T00:45:05.207Z,30.92
2018-08-17T00:47:38.670Z,30.95
2018-08-17T00:50:12.159Z,31.60
2018-08-17T00:52:45.612Z,31.02
2018-08-17T00:55:19.066Z,32.10
2018-08-17T00:57:52.495Z,31.80
2018-08-17T01:00:25.955Z,32.10
2018-08-17T01:02:59.382Z,31.77
2018-08-17T01:05:32.827Z,32.15
2018-08-17T01:08:06.513Z,31.10
2018-08-17T01:10:39.979Z,30.45
2018-08-17T01:13:14.007Z,30.60
2018-08-17T01:15:47.460Z,30.60
2018-08-17T01:18:20.933Z,30.72
2018-08-17T01:20:54.362Z,30.85
2018-08-17T01:23:27.795Z,30.77
2018-08-17T01:26:01.247Z,31.15
2018-08-17T01:28:34.675Z,31.20
2018-08-17T01:31:08.167Z,31.15
2018-08-17T01:33:41.576Z,30.97
2018-08-17T01:36:15.019Z,30.48
2018-08-17T01:38:48.435Z,31.07
2018-08-17T01:41:21.887Z,30.40
2018-08-17T01:43:55.311Z,31.05
2018-08-17T01:46:28.742Z,31.02
2018-08-17T01:49:02.210Z,30.90
2018-08-17T01:51:35.667Z,31.25
2018-08-17T01:54:09.130Z,31.87
2018-08-17T01:56:42.559Z,31.40
2018-08-17T01:59:15.970Z,31.65
2018-08-17T02:01:49.927Z,32.08
2018-08-17T02:04:23.361Z,31.60
2018-08-17T02:06:56.821Z,31.17
2018-08-17T02:09:30.225Z,30.72
2018-08-17T02:12:03.678Z,31.10
2018-08-17T02:14:37.121Z,31.30
2018-08-17T02:17:10.552Z,30.62
2018-08-17T02:19:43.966Z,30.92
2018-08-17T02:22:17.407Z,30.37
2018-08-17T02:24:50.825Z,30.90
2018-08-17T02:27:24.264Z,30.88
2018-08-17T02:29:57.689Z,32.13
2018-08-17T02:32:31.148Z,31.57
2018-08-17T02:35:05.252Z,30.45
2018-08-17T02:37:38.683Z,30.43
2018-08-17T02:40:12.111Z,30.15
2018-08-17T02:42:45.551Z,30.45
2018-08-17T02:45:18.985Z,30.32
2018-08-17T02:47:52.413Z,30.95
2018-08-17T02:50:25.859Z,30.25
2018-08-17T02:52:59.291Z,30.43
2018-08-17T02:55:32.710Z,30.35
2018-08-17T02:58:06.202Z,30.60
2018-08-17T03:00:39.627Z,30.70
2018-08-17T03:03:13.074Z,30.85
2018-08-17T03:05:46.543Z,31.12
2018-08-17T03:08:19.995Z,30.43
2018-08-17T03:10:53.407Z,30.77
2018-08-17T03:13:26.827Z,31.05
2018-08-17T03:16:00.258Z,30.62
2018-08-17T03:18:33.719Z,30.40
2018-08-17T03:21:07.138Z,31.40
2018-08-17T03:23:40.563Z,30.68
2018-08-17T03:26:14.024Z,29.90
2018-08-17T03:28:47.446Z,30.88
2018-08-17T03:31:20.886Z,30.92
2018-08-17T03:33:54.821Z,30.43
2018-08-17T03:36:28.259Z,29.72
2018-08-17T03:39:02.016Z,31.40
2018-08-17T03:41:35.455Z,31.02
2018-08-17T03:44:09.153Z,30.85
2018-08-17T03:46:42.590Z,30.82
2018-08-17T03:49:16.027Z,30.72
2018-08-17T03:51:49.507Z,30.17
2018-08-17T03:54:22.996Z,29.85
2018-08-17T03:57:01.428Z,29.87
2018-08-17T03:59:34.870Z,30.25
2018-08-17T04:02:08.330Z,30.72
2018-08-17T04:04:41.791Z,31.27
2018-08-17T04:07:15.216Z,30.05
2018-08-17T04:09:48.663Z,30.65
2018-08-17T04:12:22.125Z,31.05
2018-08-17T04:14:55.571Z,30.80
2018-08-17T04:17:29.003Z,30.55
2018-08-17T04:20:02.455Z,30.70
2018-08-17T04:22:35.892Z,30.32
2018-08-17T04:25:09.365Z,30.17
2018-08-17T04:27:42.784Z,30.35
2018-08-17T04:30:16.272Z,31.73
2018-08-17T04:32:49.703Z,30.90
2018-08-17T04:35:23.177Z,31.07
2018-08-17T04:37:56.595Z,31.15
2018-08-17T04:40:30.039Z,30.30
2018-08-17T04:43:03.467Z,31.15
2018-08-17T04:45:36.924Z,30.82
2018-08-17T04:48:10.471Z,31.75
2018-08-17T04:50:43.940Z,30.95
2018-08-17T04:53:17.388Z,30.43
2018-08-17T04:55:50.826Z,30.60
2018-08-17T04:58:24.256Z,32.00
2018-08-17T05:00:58.116Z,30.65
2018-08-17T05:03:31.732Z,31.48
2018-08-17T05:06:05.215Z,30.85
2018-08-17T05:08:38.668Z,30.77
2018-08-17T05:11:12.106Z,30.82
2018-08-17T05:13:45.525Z,31.00
2018-08-17T05:16:19.089Z,30.77
2018-08-17T05:18:52.516Z,30.75
2018-08-17T05:21:25.987Z,30.97
2018-08-17T05:23:59.426Z,31.40
2018-08-17T05:26:32.870Z,30.62
2018-08-17T05:29:06.378Z,31.75
2018-08-17T05:31:39.873Z,31.48
2018-08-17T05:34:13.419Z,30.82
2018-08-17T05:36:46.828Z,31.40
2018-08-17T05:39:20.303Z,32.20
2018-08-17T05:41:53.783Z,31.82
2018-08-17T05:44:27.227Z,31.82
2018-08-17T05:47:00.664Z,31.05
2018-08-17T05:49:34.091Z,31.17
2018-08-17T05:52:07.577Z,30.88
2018-08-17T05:54:40.999Z,31.27
2018-08-17T05:57:14.468Z,31.02
2018-08-17T05:59:47.894Z,31.15
2018-08-17T06:02:21.380Z,31.17
2018-08-17T06:04:54.818Z,31.80
2018-08-17T06:07:28.275Z,31.15
2018-08-17T06:10:01.711Z,31.15
2018-08-17T06:12:35.275Z,31.23
2018-08-17T06:15:08.848Z,31.12
2018-08-17T06:17:42.296Z,30.90
2018-08-17T06:20:15.775Z,31.35
2018-08-17T06:22:49.215Z,31.17
2018-08-17T06:25:22.682Z,31.10
2018-08-17T06:27:56.165Z,31.02
2018-08-17T06:30:29.667Z,31.60
2018-08-17T06:33:03.174Z,31.35
2018-08-17T06:35:36.696Z,31.80
2018-08-17T06:38:10.157Z,31.50
2018-08-17T06:40:43.649Z,31.68
2018-08-17T06:43:17.099Z,30.97
2018-08-17T06:45:50.590Z,31.65
2018-08-17T06:48:24.034Z,31.23
2018-08-17T06:50:57.579Z,31.35
2018-08-17T06:53:30.988Z,30.77
2018-08-17T06:56:04.478Z,31.52
2018-08-17T06:58:37.920Z,31.75
2018-08-17T07:01:11.372Z,31.65
2018-08-17T07:03:44.822Z,32.10
2018-08-17T07:06:18.288Z,31.80
2018-08-17T07:08:51.793Z,30.95
2018-08-17T07:11:25.197Z,31.97
2018-08-17T07:13:58.630Z,31.52
2018-08-17T07:16:32.101Z,31.48
2018-08-17T07:19:05.548Z,32.35
2018-08-17T07:21:39.103Z,31.62
2018-08-17T07:24:12.466Z,31.93
2018-08-17T07:26:45.912Z,31.37
2018-08-17T07:29:19.328Z,31.95
2018-08-17T07:31:52.811Z,31.60
2018-08-17T07:34:26.259Z,32.30
2018-08-17T07:36:59.704Z,32.28
2018-08-17T07:39:33.248Z,32.33
2018-08-17T07:42:06.752Z,32.58
2018-08-17T07:44:40.335Z,33.00
2018-08-17T07:47:13.817Z,32.13
2018-08-17T07:49:47.234Z,33.02
2018-08-17T07:52:20.684Z,32.42
2018-08-17T07:54:54.100Z,33.23
2018-08-17T07:57:27.586Z,32.38
2018-08-17T08:00:01.010Z,33.67
2018-08-17T08:02:34.907Z,32.98
2018-08-17T08:05:09.439Z,32.88
2018-08-17T08:07:42.888Z,32.60
2018-08-17T08:10:16.339Z,33.50
2018-08-17T08:12:49.782Z,32.98
2018-08-17T08:15:23.250Z,32.98
2018-08-17T08:17:56.719Z,32.73
2018-08-17T08:20:35.634Z,33.25
2018-08-17T08:23:24.895Z,32.83
2018-08-17T08:25:58.717Z,32.13
2018-08-17T08:28:32.168Z,33.53
2018-08-17T08:31:05.712Z,32.58
2018-08-17T08:33:39.159Z,32.45
2018-08-17T08:36:12.616Z,33.13
2018-08-17T08:38:46.067Z,33.45
2018-08-17T08:41:19.514Z,33.02
2018-08-17T08:43:52.983Z,33.30
2018-08-17T08:46:27.739Z,32.48
2018-08-17T08:49:01.630Z,31.45
2018-08-17T08:51:35.659Z,31.73
2018-08-17T08:54:09.122Z,32.63
2018-08-17T08:56:42.600Z,31.30
2018-08-17T08:59:16.075Z,32.20
2018-08-17T09:01:49.743Z,31.77
2018-08-17T09:04:23.199Z,32.78
2018-08-17T09:06:56.631Z,31.65
2018-08-17T09:09:30.103Z,32.30
2018-08-17T09:12:03.575Z,31.37
2018-08-17T09:14:37.012Z,32.67
2018-08-17T09:17:10.435Z,32.05
2018-08-17T09:19:43.875Z,31.87
2018-08-17T09:22:17.376Z,31.80
2018-08-17T09:24:50.889Z,31.80
2018-08-17T09:27:28.178Z,32.15
2018-08-17T09:30:01.756Z,31.50
2018-08-17T09:32:35.175Z,31.65
2018-08-17T09:35:09.347Z,31.57
2018-08-17T09:37:43.225Z,32.28
2018-08-17T09:40:16.728Z,32.15
2018-08-17T09:42:50.150Z,31.82
2018-08-17T09:45:23.587Z,32.00
2018-08-17T09:47:57.047Z,31.87
2018-08-17T09:50:30.550Z,31.48
2018-08-17T09:53:04.511Z,32.28
2018-08-17T09:55:37.962Z,31.70
2018-08-17T09:58:11.400Z,31.68
2018-08-17T10:00:50.281Z,32.15
2018-08-17T10:03:29.156Z,32.03
2018-08-17T10:06:08.039Z,31.52
2018-08-17T10:08:46.730Z,31.80
2018-08-17T10:11:20.167Z,30.80
2018-08-17T10:13:53.583Z,31.82
2018-08-17T10:16:27.036Z,31.60
2018-08-17T10:19:00.456Z,31.68
2018-08-17T10:21:38.925Z,31.30
2018-08-17T10:24:11.996Z,31.05
2018-08-17T10:26:48.972Z,32.23
2018-08-17T10:29:22.912Z,31.15
2018-08-17T10:31:56.983Z,31.42
2018-08-17T10:34:30.430Z,31.90
2018-08-17T10:37:04.002Z,31.65
2018-08-17T10:39:38.499Z,32.23
2018-08-17T10:42:11.965Z,31.90
2018-08-17T10:44:45.416Z,31.82
2018-08-17T10:47:19.387Z,31.45
2018-08-17T10:49:53.751Z,32.23
2018-08-17T10:52:27.328Z,32.25
2018-08-17T10:55:00.779Z,31.85
2018-08-17T10:57:34.355Z,31.12
2018-08-17T11:00:08.903Z,31.62
2018-08-17T11:02:43.116Z,32.00
2018-08-17T11:05:17.954Z,32.08
2018-08-17T11:07:51.380Z,31.27
2018-08-17T11:10:24.845Z,32.53
2018-08-17T11:12:58.279Z,32.28
2018-08-17T11:15:31.740Z,31.87
2018-08-17T11:18:05.227Z,32.15
2018-08-17T11:20:38.704Z,31.77
2018-08-17T11:23:12.124Z,32.10
2018-08-17T11:25:45.575Z,32.58
2018-08-17T11:28:19.015Z,32.48
2018-08-17T11:30:52.483Z,32.28
2018-08-17T11:33:27.661Z,32.48
2018-08-17T11:36:01.119Z,32.83
2018-08-17T11:38:34.551Z,32.00
2018-08-17T11:41:10.058Z,32.80
2018-08-17T11:43:43.478Z,31.82
2018-08-17T11:46:17.012Z,32.38
2018-08-17T11:48:50.446Z,32.55
2018-08-17T11:51:23.910Z,32.48
2018-08-17T11:53:57.371Z,32.28
2018-08-17T11:56:30.873Z,32.23
2018-08-17T11:59:04.335Z,31.85
2018-08-17T12:01:37.772Z,32.58
2018-08-17T12:04:11.200Z,32.88
2018-08-17T12:06:44.664Z,32.50
2018-08-17T12:09:18.092Z,32.28
2018-08-17T12:11:51.615Z,32.35
2018-08-17T12:14:25.036Z,33.00
2018-08-17T12:16:58.475Z,32.17
2018-08-17T12:19:31.891Z,32.80
2018-08-17T12:22:05.347Z,32.90
2018-08-17T12:24:38.863Z,32.42
2018-08-17T12:27:12.240Z,32.38
2018-08-17T12:29:45.683Z,33.13
2018-08-17T12:32:19.156Z,32.73
2018-08-17T12:34:52.754Z,33.98
2018-08-17T12:37:26.190Z,33.35
2018-08-17T12:39:59.683Z,32.63
2018-08-17T12:42:36.075Z,32.73
2018-08-17T12:45:14.806Z,32.78
2018-08-17T12:47:48.255Z,32.10
2018-08-17T12:50:21.695Z,33.33
2018-08-17T12:52:55.153Z,32.48
2018-08-17T12:55:28.585Z,32.65
2018-08-17T12:58:02.090Z,32.50
2018-08-17T13:00:35.502Z,32.75
2018-08-17T13:03:09.328Z,32.75
2018-08-17T13:05:42.759Z,32.95
2018-08-17T13:08:16.220Z,32.70
2018-08-17T13:10:49.719Z,32.88
2018-08-17T13:13:23.142Z,33.30
2018-08-17T13:16:05.358Z,33.90
2018-08-17T13:18:39.058Z,33.18
2018-08-17T13:21:12.486Z,32.83
2018-08-17T13:23:45.935Z,33.50
2018-08-17T13:26:19.364Z,31.82
2018-08-17T13:28:52.812Z,31.87
2018-08-17T13:31:26.273Z,32.40
2018-08-17T13:34:00.180Z,32.78
2018-08-17T13:36:33.640Z,33.25
2018-08-17T13:39:09.263Z,32.28
2018-08-17T13:41:42.713Z,32.78
2018-08-17T13:44:16.215Z,32.55
2018-08-17T13:46:49.663Z,36.15
2018-08-17T13:49:23.112Z,32.70
2018-08-17T13:51:56.555Z,31.95
2018-08-17T13:54:30.038Z,32.08
2018-08-17T13:57:03.480Z,32.75
2018-08-17T13:59:36.927Z,32.17
2018-08-17T14:02:10.486Z,33.15
2018-08-17T14:04:43.954Z,32.70
2018-08-17T14:07:17.475Z,32.85
2018-08-17T14:09:51.134Z,32.90
2018-08-17T14:12:24.603Z,33.30
2018-08-17T14:14:58.088Z,33.18
2018-08-17T14:17:31.544Z,33.28
2018-08-17T14:20:07.719Z,33.65
2018-08-17T14:22:41.180Z,33.25
2018-08-17T14:25:14.654Z,33.23
2018-08-17T14:27:48.113Z,33.08
2018-08-17T14:30:21.582Z,34.03
2018-08-17T14:32:55.015Z,33.35
2018-08-17T14:35:28.490Z,33.08
2018-08-17T14:38:01.944Z,33.78
2018-08-17T14:40:35.403Z,33.92
2018-08-17T14:43:08.859Z,33.95
2018-08-17T14:45:42.296Z,33.98
2018-08-17T14:48:15.743Z,33.40
2018-08-17T14:50:49.261Z,33.78
2018-08-17T14:53:22.800Z,33.73
2018-08-17T14:55:56.276Z,35.00
2018-08-17T14:58:29.738Z,33.98
2018-08-17T15:01:03.266Z,34.10
2018-08-17T15:03:36.709Z,34.40
2018-08-17T15:06:10.232Z,34.13
2018-08-17T15:08:43.659Z,33.98
2018-08-17T15:11:17.102Z,34.15
2018-08-17T15:13:50.536Z,34.50
2018-08-17T15:16:24.048Z,34.27
2018-08-17T15:18:57.475Z,33.63
2018-08-17T15:21:30.966Z,33.90
2018-08-17T15:24:04.463Z,34.98
2018-08-17T15:26:38.026Z,34.13
2018-08-17T15:29:11.391Z,34.92
2018-08-17T15:31:44.997Z,34.70
2018-08-17T15:34:18.427Z,34.13
2018-08-17T15:36:53.142Z,34.38
2018-08-17T15:39:26.562Z,34.80
2018-08-17T15:42:00.036Z,34.13
2018-08-17T15:44:33.467Z,33.50
2018-08-17T15:47:06.988Z,34.13
2018-08-17T15:49:41.304Z,33.45
2018-08-17T15:52:14.761Z,33.40
2018-08-17T15:54:48.183Z,33.63
2018-08-17T15:57:21.643Z,33.23
2018-08-17T15:59:55.092Z,34.13
2018-08-17T16:02:28.572Z,34.50
2018-08-17T16:05:02.011Z,33.55
2018-08-17T16:07:35.481Z,33.38
2018-08-17T16:10:11.527Z,33.58
2018-08-17T16:12:45.554Z,33.67
2018-08-17T16:15:19.048Z,33.13
2018-08-17T16:17:52.519Z,33.38
2018-08-17T16:20:25.975Z,33.63
2018-08-17T16:22:59.396Z,33.18
2018-08-17T16:25:32.830Z,35.23
2018-08-17T16:28:06.258Z,35.38
2018-08-17T16:30:39.739Z,37.33
2018-08-17T16:33:13.172Z,35.13
2018-08-17T16:35:46.615Z,36.28
2018-08-17T16:38:20.055Z,36.03
2018-08-17T16:40:53.830Z,36.42
2018-08-17T16:43:39.558Z,34.92
2018-08-17T16:46:13.486Z,36.20
2018-08-17T16:48:46.988Z,35.52
2018-08-17T16:51:20.411Z,35.48
2018-08-17T16:53:57.274Z,36.38
2018-08-17T16:56:30.860Z,36.60
2018-08-17T16:59:04.546Z,36.55
2018-08-17T17:01:37.874Z,36.70
2018-08-17T17:04:11.308Z,36.23
2018-08-17T17:06:44.767Z,36.42
2018-08-17T17:09:18.241Z,36.53
2018-08-17T17:11:51.679Z,35.58
2018-08-17T17:14:25.095Z,35.90
2018-08-17T17:16:59.638Z,34.90
2018-08-17T17:19:33.060Z,34.85
2018-08-17T17:22:06.850Z,35.35
2018-08-17T17:24:40.304Z,34.20
2018-08-17T17:27:15.012Z,34.50
2018-08-17T17:29:48.458Z,34.35
2018-08-17T17:32:21.927Z,34.08
2018-08-17T17:34:55.359Z,34.33
2018-08-17T17:37:28.799Z,33.73
2018-08-17T17:40:02.262Z,34.55
2018-08-17T17:42:35.704Z,33.67
2018-08-17T17:45:09.148Z,33.73
2018-08-17T17:47:42.590Z,33.55
2018-08-17T17:50:16.007Z,33.67
2018-08-17T17:52:49.468Z,33.13
2018-08-17T17:55:23.254Z,33.45
2018-08-17T17:57:56.696Z,34.05
2018-08-17T18:00:30.147Z,33.95
2018-08-17T18:03:03.642Z,34.58
2018-08-17T18:05:37.079Z,34.38
2018-08-17T18:08:15.991Z,34.10
2018-08-17T18:10:49.684Z,33.58
2018-08-17T18:13:23.127Z,33.42
2018-08-17T18:15:56.642Z,33.70
2018-08-17T18:18:30.148Z,33.20
2018-08-17T18:21:03.611Z,33.45
2018-08-17T18:23:37.062Z,33.45
2018-08-17T18:26:15.943Z,33.42
2018-08-17T18:28:49.387Z,33.13
2018-08-17T18:31:22.857Z,34.13
2018-08-17T18:33:56.311Z,34.08
2018-08-17T18:36:29.753Z,33.65
2018-08-17T18:39:03.563Z,33.50
2018-08-17T18:41:37.014Z,34.18
2018-08-17T18:44:11.031Z,33.75
2018-08-17T18:46:44.558Z,33.23
2018-08-17T18:49:17.931Z,33.85
2018-08-17T18:51:51.498Z,34.30
2018-08-17T18:54:24.940Z,33.88
2018-08-17T18:56:58.363Z,33.53
2018-08-17T18:59:31.822Z,34.15
2018-08-17T19:02:05.323Z,33.25
2018-08-17T19:04:38.770Z,33.63
2018-08-17T19:07:12.202Z,34.27
2018-08-17T19:09:45.667Z,34.90
2018-08-17T19:12:19.110Z,35.38
2018-08-17T19:14:52.561Z,34.90
2018-08-17T19:17:28.594Z,34.88
2018-08-17T19:20:02.048Z,35.88
2018-08-17T19:22:37.327Z,35.30
2018-08-17T19:25:12.804Z,36.10
2018-08-17T19:27:46.227Z,35.03
2018-08-17T19:30:26.142Z,36.45
2018-08-17T19:33:04.083Z,35.30
2018-08-17T19:35:38.521Z,36.08
2018-08-17T19:38:11.991Z,36.17
2018-08-17T19:40:45.452Z,34.65
2018-08-17T19:43:18.883Z,35.40
2018-08-17T19:45:53.489Z,37.35
2018-08-17T19:48:26.882Z,35.65
2018-08-17T19:51:00.396Z,36.63
2018-08-17T19:53:33.835Z,35.55
2018-08-17T19:56:07.321Z,36.80
2018-08-17T19:58:41.221Z,36.88
2018-08-17T20:01:14.659Z,36.77
2018-08-17T20:03:48.071Z,36.30
2018-08-17T20:06:21.559Z,35.78
2018-08-17T20:08:54.987Z,36.85
2018-08-17T20:11:28.427Z,37.13
2018-08-17T20:14:01.856Z,36.40
2018-08-17T20:16:35.345Z,35.50
2018-08-17T20:19:08.852Z,36.00
2018-08-17T20:21:42.287Z,36.70
2018-08-17T20:24:15.727Z,36.42
2018-08-17T20:26:52.228Z,36.63
2018-08-17T20:29:25.575Z,36.93
2018-08-17T20:31:59.092Z,36.08
2018-08-17T20:34:32.524Z,36.15
2018-08-17T20:37:05.975Z,35.95
2018-08-17T20:39:40.574Z,35.48
2018-08-17T20:42:14.042Z,36.05
2018-08-17T20:44:47.467Z,34.75
2018-08-17T20:47:20.955Z,34.70
2018-08-17T20:49:54.394Z,35.43
2018-08-17T20:52:27.955Z,34.75
2018-08-17T20:55:01.434Z,35.78
2018-08-17T20:57:34.851Z,35.40
2018-08-17T21:00:08.326Z,34.33
2018-08-17T21:02:41.794Z,35.25
2018-08-17T21:05:15.685Z,35.50
2018-08-17T21:07:49.602Z,35.20
2018-08-17T21:10:23.088Z,35.40
2018-08-17T21:12:56.540Z,35.15
2018-08-17T21:15:29.987Z,35.48
2018-08-17T21:18:03.423Z,36.10
2018-08-17T21:20:36.896Z,34.70
2018-08-17T21:23:10.368Z,34.35
2018-08-17T21:25:43.806Z,34.08
2018-08-17T21:28:17.232Z,34.70
2018-08-17T21:30:50.699Z,34.78
2018-08-17T21:33:24.140Z,34.60
2018-08-17T21:35:58.288Z,35.05
2018-08-17T21:38:31.723Z,35.00
2018-08-17T21:41:05.298Z,35.00
2018-08-17T21:43:38.723Z,35.55
2018-08-17T21:46:12.339Z,35.78
2018-08-17T21:48:45.776Z,34.45
2018-08-17T21:51:19.282Z,34.20
2018-08-17T21:53:52.735Z,34.98
2018-08-17T21:56:26.215Z,34.20
2018-08-17T21:58:59.643Z,33.75
2018-08-17T22:01:33.112Z,35.17
2018-08-17T22:04:06.576Z,34.13
2018-08-17T22:06:40.014Z,33.65
2018-08-17T22:09:14.471Z,33.60
2018-08-17T22:11:47.899Z,34.18
2018-08-17T22:14:21.315Z,33.40
2018-08-17T22:16:54.758Z,34.48
2018-08-17T22:19:41.492Z,33.88
2018-08-17T22:22:14.949Z,34.15
2018-08-17T22:24:54.447Z,33.35
2018-08-17T22:27:28.966Z,33.45
2018-08-17T22:30:02.448Z,33.10
2018-08-17T22:32:35.940Z,33.42
2018-08-17T22:35:09.437Z,34.08
2018-08-17T22:37:42.878Z,33.88
2018-08-17T22:40:16.319Z,33.55
2018-08-17T22:42:50.581Z,34.78
2018-08-17T22:45:24.025Z,33.70
2018-08-17T22:47:57.520Z,34.18
2018-08-17T22:50:30.983Z,33.75
2018-08-17T22:53:04.550Z,34.33
2018-08-17T22:55:37.979Z,34.00
2018-08-17T22:58:11.428Z,34.27
2018-08-17T23:00:44.864Z,34.18
2018-08-17T23:03:18.326Z,34.25
2018-08-17T23:05:51.762Z,34.05
2018-08-17T23:08:25.231Z,34.55
2018-08-17T23:10:58.654Z,34.00
2018-08-17T23:13:32.103Z,34.38
2018-08-17T23:16:05.560Z,34.27
2018-08-17T23:18:39.027Z,35.28
2018-08-17T23:21:12.478Z,34.65
2018-08-17T23:23:45.982Z,33.67
2018-08-17T23:26:19.419Z,35.08
2018-08-17T23:28:52.858Z,34.43
2018-08-17T23:31:26.343Z,34.33
2018-08-17T23:33:59.799Z,35.13
2018-08-17T23:36:33.227Z,34.83
2018-08-17T23:39:08.877Z,34.78
2018-08-17T23:41:42.298Z,35.90
2018-08-17T23:44:15.742Z,35.88
2018-08-17T23:46:49.174Z,36.42
2018-08-17T23:49:22.635Z,36.30
2018-08-17T23:51:56.081Z,36.73
2018-08-17T23:54:29.540Z,37.17
2018-08-17T23:57:03.035Z,35.45
2018-08-17T23:59:36.521Z,36.68
